Time;durP1;ratioP1;P1;durP2;ratioP2;P2;SDS_P1;SDS_P2;PMS_P1;PMS_P2;Temp;Humidity;BMP_temperature;BMP_pressure;BME280_temperature;BME280_humidity;BME280_pressure;Samples;Min_cycle;Max_cycle;Signal;HPM_P1;HPM_P2
2023/09/14 00:06:54;;;;;;;;;;;;;;;21.83;96.44;100139.93;667108;1267;125471;-77
2023/09/14 00:21:57;;;;;;;;;;;;;;;21.78;96.07;100141.40;667603;1267;125654;-78
2023/09/14 00:37:00;;;;;;;;;;;;;;;21.56;96.52;100140.41;666189;1270;124996;-77
2023/09/14 00:52:05;;;;;;;;;;;;;;;21.41;96.94;100145.20;668420;1280;126414;-77
2023/09/14 01:07:09;;;;;;;;;;;;;;;21.42;96.82;100170.20;666398;1275;125565;-77
2023/09/14 01:22:15;;;;;;;;;;;;;;;21.46;95.92;100199.95;665805;1269;125369;-77
2023/09/14 01:37:19;;;;;;;;;;;;;;;21.44;95.27;100208.98;666444;1264;125422;-78
2023/09/14 01:52:23;;;;;;;;;;;;;;;21.26;95.94;100219.80;666397;1269;125651;-77
2023/09/14 02:07:27;;;;;;;;;;;;;;;21.25;96.20;100237.17;666549;1265;125285;-77
2023/09/14 02:22:31;;;;;;;;;;;;;;;21.30;96.17;100249.88;668389;1279;125341;-77
2023/09/14 02:37:34;;;;;;;;;;;;;;;21.31;95.80;100264.95;666581;1268;125111;-77
2023/09/14 02:52:38;;;;;;;;;;;;;;;21.31;95.86;100273.52;669530;1267;125717;-78
2023/09/14 03:07:43;;;;;;;;;;;;;;;21.30;95.65;100290.39;674283;1266;124159;-77
2023/09/14 03:22:47;;;;;;;;;;;;;;;21.43;94.56;100304.30;665429;1270;125227;-77
2023/09/14 03:37:51;;;;;;;;;;;;;;;21.38;94.26;100319.91;666399;1268;124810;-77
2023/09/14 03:52:54;;;;;;;;;;;;;;;21.32;94.39;100328.07;666247;1269;125610;-78
2023/09/14 04:07:58;;;;;;;;;;;;;;;21.27;94.34;100350.85;670784;1266;125181;-77
2023/09/14 04:23:01;;;;;;;;;;;;;;;21.25;94.66;100380.80;671183;1268;125803;-78
2023/09/14 04:38:06;;;;;;;;;;;;;;;21.21;94.62;100394.04;671006;1268;145426;-78
2023/09/14 04:53:09;;;;;;;;;;;;;;;21.16;94.60;100406.23;670514;1268;125333;-79
2023/09/14 05:08:13;;;;;;;;;;;;;;;21.28;93.89;100420.65;670606;1266;125217;-79
2023/09/14 05:23:16;;;;;;;;;;;;;;;21.43;94.71;100427.58;672398;1266;125672;-78
2023/09/14 05:38:19;;;;;;;;;;;;;;;21.43;94.60;100433.44;672772;1268;126147;-78
2023/09/14 05:53:23;;;;;;;;;;;;;;;21.53;93.70;100440.86;672913;1265;126276;-79
2023/09/14 06:08:26;;;;;;;;;;;;;;;21.85;92.22;100457.90;673276;1267;125480;-78
2023/09/14 06:23:29;;;;;;;;;;;;;;;22.05;91.29;100467.09;672114;1267;126650;-78
2023/09/14 06:38:32;;;;;;;;;;;;;;;22.32;90.26;100479.15;672944;1264;125405;-78
2023/09/14 06:53:35;;;;;;;;;;;;;;;23.40;88.42;100494.33;671246;1264;126025;-79
2023/09/14 07:08:41;;;;;;;;;;;;;;;24.36;83.14;100517.11;666564;1267;125672;-78
2023/09/14 07:23:46;;;;;;;;;;;;;;;23.65;83.21;100526.48;671000;1268;126006;-78
2023/09/14 07:38:50;;;;;;;;;;;;;;;23.16;85.29;100540.40;670922;1268;124930;-78
2023/09/14 07:53:55;;;;;;;;;;;;;;;23.47;86.57;100547.02;670947;1269;126137;-78
2023/09/14 08:08:59;;;;;;;;;;;;;;;23.31;86.30;100568.89;668423;1270;125199;-78
2023/09/14 08:24:02;;;;;;;;;;;;;;;22.76;88.62;100579.73;672961;1276;124785;-77
2023/09/14 08:39:05;;;;;;;;;;;;;;;22.89;89.34;100585.21;672374;1266;125590;-79
2023/09/14 08:54:21;;;;;;;;;;;;;;;22.96;88.89;100591.73;671702;1265;124992;-78
2023/09/14 09:09:26;;;;;;;;;;;;;;;26.02;82.34;100597.95;673065;1265;125211;-79
2023/09/14 09:24:30;;;;;;;;;;;;;;;25.74;76.90;100612.52;672266;1266;125140;-77
2023/09/14 09:39:37;;;;;;;;;;;;;;;24.90;76.99;100626.09;671804;1266;125397;-80
2023/09/14 09:54:40;;;;;;;;;;;;;;;24.69;78.88;100636.08;671563;1266;125355;-78
2023/09/14 10:09:43;;;;;;;;;;;;;;;25.25;75.29;100635.63;673349;1276;125814;-78
2023/09/14 10:24:48;;;;;;;;;;;;;;;26.08;75.33;100641.02;673384;1264;126068;-81
2023/09/14 10:39:54;;;;;;;;;;;;;;;26.07;73.00;100648.55;673250;1263;125165;-78
2023/09/14 10:54:57;;;;;;;;;;;;;;;26.45;72.33;100650.55;673567;1262;125073;-78
2023/09/14 11:10:04;;;;;;;;;;;;;;;24.82;74.51;100675.05;673762;1273;126043;-81
2023/09/14 11:25:09;;;;;;;;;;;;;;;23.75;78.17;100689.45;673304;1263;125837;-79
2023/09/14 11:40:33;;;;;;;;;;;;;;;24.02;77.05;100693.77;673367;1262;125198;-78
2023/09/14 11:55:39;;;;;;;;;;;;;;;24.70;75.58;100707.33;673316;1265;126503;-79
2023/09/14 12:10:43;;;;;;;;;;;;;;;24.12;75.85;100724.23;673826;1262;125275;-80
2023/09/14 12:25:47;;;;;;;;;;;;;;;23.35;80.40;100746.15;673130;1264;125102;-79
2023/09/14 12:40:51;;;;;;;;;;;;;;;23.34;82.71;100745.67;673785;1261;124991;-80
2023/09/14 12:55:54;;;;;;;;;;;;;;;23.80;82.15;100743.65;673757;1262;125740;-80
2023/09/14 13:10:58;;;;;;;;;;;;;;;24.66;75.87;100748.08;673611;1261;125971;-78
2023/09/14 13:26:01;;;;;;;;;;;;;;;25.49;71.21;100744.73;673831;1263;125948;-79
2023/09/14 13:41:05;;;;;;;;;;;;;;;25.24;68.66;100748.55;676381;1263;124973;-78
2023/09/14 13:56:08;;;;;;;;;;;;;;;24.97;67.40;100749.73;674058;1272;124481;-79
2023/09/14 14:11:12;;;;;;;;;;;;;;;24.61;65.76;100753.30;676342;1263;124016;-76
2023/09/14 14:26:16;;;;;;;;;;;;;;;23.90;66.20;100767.81;669280;1265;126453;-76
2023/09/14 14:41:21;;;;;;;;;;;;;;;23.68;68.37;100772.78;669307;1264;124341;-76
2023/09/14 14:56:43;;;;;;;;;;;;;;;23.57;68.43;100777.58;669093;1263;124960;-77
2023/09/14 15:11:49;;;;;;;;;;;;;;;23.76;68.34;100788.20;669307;1266;126074;-76
2023/09/14 15:26:55;;;;;;;;;;;;;;;23.78;67.37;100795.55;668730;1266;124896;-76
2023/09/14 15:42:00;;;;;;;;;;;;;;;24.25;66.43;100803.46;668398;1264;124364;-77
2023/09/14 15:57:05;;;;;;;;;;;;;;;23.70;65.49;100823.55;667837;1266;125609;-77
2023/09/14 16:12:11;;;;;;;;;;;;;;;22.52;66.86;100847.36;667855;1264;125198;-76
2023/09/14 16:27:16;;;;;;;;;;;;;;;21.88;67.24;100864.55;667599;1263;124574;-77
2023/09/14 16:42:22;;;;;;;;;;;;;;;21.55;67.59;100883.63;667558;1266;154120;-77
2023/09/14 16:57:27;;;;;;;;;;;;;;;21.02;68.28;100896.54;667845;1264;125092;-76
2023/09/14 17:12:31;;;;;;;;;;;;;;;20.61;69.51;100904.09;668136;1264;124517;-77
2023/09/14 17:27:39;;;;;;;;;;;;;;;19.95;70.57;100915.23;672843;1259;126653;-77
2023/09/14 17:42:44;;;;;;;;;;;;;;;19.27;71.83;100931.29;670782;1264;125868;-77
2023/09/14 17:57:48;;;;;;;;;;;;;;;18.83;73.18;100955.88;670650;1264;126394;-77
2023/09/14 18:12:52;;;;;;;;;;;;;;;18.42;74.00;100964.88;677524;1260;126634;-78
2023/09/14 18:27:57;;;;;;;;;;;;;;;17.87;74.81;100983.92;668343;1266;125763;-77
2023/09/14 18:43:07;;;;;;;;;;;;;;;17.58;75.47;100998.70;668814;1265;127482;-79
2023/09/14 18:58:14;;;;;;;;;;;;;;;17.21;76.21;101009.23;672575;1263;126541;-78
2023/09/14 19:13:41;;;;;;;;;;;;;;;16.69;77.09;101023.84;672104;1275;126499;-78
2023/09/14 19:28:47;;;;;;;;;;;;;;;16.32;78.48;101033.19;672865;1261;125250;-79
2023/09/14 19:43:54;;;;;;;;;;;;;;;16.04;80.27;101039.27;675593;1264;126583;-79
2023/09/14 19:59:01;;;;;;;;;;;;;;;15.76;81.45;101037.42;674055;1260;125825;-79
2023/09/14 20:14:08;;;;;;;;;;;;;;;15.72;81.70;101046.06;674846;1264;126090;-78
2023/09/14 20:29:13;;;;;;;;;;;;;;;15.58;81.85;101049.98;676577;1259;125521;-78
2023/09/14 20:44:21;;;;;;;;;;;;;;;15.33;81.95;101063.29;674174;1264;129190;-78
2023/09/14 20:59:25;;;;;;;;;;;;;;;14.88;83.61;101073.00;673044;1263;126512;-78
2023/09/14 21:14:29;;;;;;;;;;;;;;;14.63;84.55;101083.52;673480;1259;126753;-78
2023/09/14 21:29:32;;;;;;;;;;;;;;;14.59;84.03;101109.73;669896;1264;126323;-77
2023/09/14 21:44:35;;;;;;;;;;;;;;;14.14;84.41;101109.46;672220;1260;126173;-78
2023/09/14 21:59:38;;;;;;;;;;;;;;;13.66;86.44;101104.37;672744;1265;126430;-79
2023/09/14 22:14:41;;;;;;;;;;;;;;;13.57;86.87;101110.56;672864;1259;126282;-79
2023/09/14 22:29:44;;;;;;;;;;;;;;;13.36;87.49;101128.61;673971;1259;125820;-77
2023/09/14 22:44:48;;;;;;;;;;;;;;;13.05;86.86;101138.05;673321;1265;126788;-76
2023/09/14 22:59:51;;;;;;;;;;;;;;;12.80;87.97;101140.80;673276;1260;126740;-77
2023/09/14 23:14:55;;;;;;;;;;;;;;;12.68;87.43;101152.52;672242;1265;125920;-77
2023/09/14 23:29:58;;;;;;;;;;;;;;;12.37;87.99;101149.87;672360;1266;126962;-79
2023/09/14 23:45:01;;;;;;;;;;;;;;;12.28;88.75;101153.77;674771;1264;127038;-78
